createdAt,value
2018-02-15T00:02:00.616Z,14.68
2018-02-15T00:04:28.155Z,11.60
2018-02-15T00:06:55.724Z,13.60
2018-02-15T00:09:23.280Z,16.50
2018-02-15T00:11:50.821Z,15.88
2018-02-15T00:14:18.426Z,16.77
2018-02-15T00:16:46.002Z,18.33
2018-02-15T00:19:13.586Z,15.35
2018-02-15T00:21:41.897Z,15.25
2018-02-15T00:24:09.503Z,13.77
2018-02-15T00:26:37.068Z,13.50
2018-02-15T00:29:04.650Z,14.05
2018-02-15T00:31:32.778Z,14.85
2018-02-15T00:34:00.324Z,17.75
2018-02-15T00:36:27.886Z,14.38
2018-02-15T00:38:55.433Z,12.15
2018-02-15T00:41:23.016Z,14.02
2018-02-15T00:43:50.563Z,15.10
2018-02-15T00:46:18.120Z,15.00
2018-02-15T00:48:45.670Z,16.50
2018-02-15T00:51:13.237Z,16.15
2018-02-15T00:53:40.771Z,17.95
2018-02-15T00:56:08.328Z,16.52
2018-02-15T00:58:35.900Z,15.55
2018-02-15T01:01:03.449Z,16.95
2018-02-15T01:03:31.028Z,18.27
2018-02-15T01:05:58.586Z,15.65
2018-02-15T01:08:26.152Z,16.25
2018-02-15T01:10:53.691Z,13.25
2018-02-15T01:13:21.231Z,14.02
2018-02-15T01:15:48.802Z,6.97
2018-02-15T01:18:16.349Z,12.37
2018-02-15T01:20:44.708Z,14.73
2018-02-15T01:23:13.030Z,12.45
2018-02-15T01:25:40.589Z,16.95
2018-02-15T01:28:08.143Z,13.02
2018-02-15T01:30:35.729Z,14.70
2018-02-15T01:33:03.273Z,15.25
2018-02-15T01:35:30.871Z,13.30
2018-02-15T01:37:58.418Z,12.93
2018-02-15T01:40:25.975Z,15.38
2018-02-15T01:42:53.538Z,15.25
2018-02-15T01:45:21.088Z,15.77
2018-02-15T01:47:48.656Z,12.40
2018-02-15T01:50:16.224Z,16.00
2018-02-15T01:52:43.788Z,12.18
2018-02-15T01:55:11.325Z,13.82
2018-02-15T01:57:39.725Z,12.20
2018-02-15T02:00:07.307Z,14.20
2018-02-15T02:02:34.859Z,13.15
2018-02-15T02:05:02.443Z,13.23
2018-02-15T02:07:30.827Z,16.75
2018-02-15T02:09:59.138Z,10.70
2018-02-15T02:12:26.700Z,14.82
2018-02-15T02:14:54.273Z,15.80
2018-02-15T02:17:21.822Z,10.55
2018-02-15T02:19:49.389Z,12.88
2018-02-15T02:22:16.933Z,14.25
2018-02-15T02:24:44.514Z,10.32
2018-02-15T02:27:12.112Z,14.80
2018-02-15T02:29:39.645Z,16.55
2018-02-15T02:32:07.251Z,13.80
2018-02-15T02:34:35.595Z,13.57
2018-02-15T02:37:03.150Z,21.27
2018-02-15T02:39:30.705Z,17.40
2018-02-15T02:41:58.272Z,13.15
2018-02-15T02:44:25.843Z,16.37
2018-02-15T02:46:53.385Z,18.02
2018-02-15T02:49:20.965Z,15.60
2018-02-15T02:51:48.543Z,14.93
2018-02-15T02:54:16.892Z,14.02
2018-02-15T02:56:44.434Z,6.10
2018-02-15T02:59:12.024Z,14.48
2018-02-15T03:01:39.570Z,15.02
2018-02-15T03:04:07.146Z,10.43
2018-02-15T03:06:34.688Z,15.45
2018-02-15T03:09:02.272Z,11.68
2018-02-15T03:11:30.604Z,11.25
2018-02-15T03:13:58.137Z,8.77
2018-02-15T03:16:25.702Z,11.48
2018-02-15T03:18:53.259Z,18.75
2018-02-15T03:21:20.847Z,13.00
2018-02-15T03:23:48.390Z,12.93
2018-02-15T03:26:15.945Z,10.65
2018-02-15T03:28:43.522Z,11.50
2018-02-15T03:31:11.100Z,13.02
2018-02-15T03:33:39.214Z,12.35
2018-02-15T03:36:07.560Z,15.07
2018-02-15T03:38:35.104Z,14.60
2018-02-15T03:41:02.655Z,13.35
2018-02-15T03:43:30.312Z,13.57
2018-02-15T03:45:57.855Z,14.65
2018-02-15T03:48:25.429Z,13.23
2018-02-15T03:50:52.977Z,12.35
2018-02-15T03:53:20.549Z,16.00
2018-02-15T03:55:48.106Z,15.63
2018-02-15T03:58:15.672Z,13.80
2018-02-15T04:00:43.209Z,12.10
2018-02-15T04:03:10.795Z,13.50
2018-02-15T04:05:38.334Z,10.35
2018-02-15T04:08:05.903Z,15.57
2018-02-15T04:10:33.445Z,17.52
2018-02-15T04:13:01.017Z,11.38
2018-02-15T04:15:28.595Z,11.95
2018-02-15T04:17:56.145Z,11.18
2018-02-15T04:20:23.712Z,15.43
2018-02-15T04:22:51.289Z,10.43
2018-02-15T04:25:18.860Z,15.68
2018-02-15T04:27:46.408Z,12.32
2018-02-15T04:30:13.980Z,8.50
2018-02-15T04:32:41.538Z,10.25
2018-02-15T04:35:09.100Z,11.10
2018-02-15T04:37:36.652Z,9.52
2018-02-15T04:40:04.236Z,11.25
2018-02-15T04:42:31.793Z,11.20
2018-02-15T04:44:59.352Z,13.15
2018-02-15T04:47:27.685Z,16.50
2018-02-15T04:49:55.260Z,14.73
2018-02-15T04:52:22.814Z,12.37
2018-02-15T04:54:50.392Z,12.90
2018-02-15T04:57:17.986Z,19.37
2018-02-15T04:59:45.564Z,31.95
2018-02-15T05:02:13.131Z,13.02
2018-02-15T05:04:40.703Z,11.30
2018-02-15T05:07:08.276Z,15.85
2018-02-15T05:09:35.853Z,14.90
2018-02-15T05:12:03.413Z,11.70
2018-02-15T05:14:30.986Z,15.85
2018-02-15T05:16:58.561Z,10.07
2018-02-15T05:19:26.870Z,10.43
2018-02-15T05:21:54.461Z,11.10
2018-02-15T05:24:21.992Z,10.75
2018-02-15T05:26:49.588Z,11.70
2018-02-15T05:29:17.135Z,15.05
2018-02-15T05:31:44.717Z,12.63
2018-02-15T05:34:12.286Z,10.30
2018-02-15T05:36:39.842Z,11.10
2018-02-15T05:39:07.423Z,11.32
2018-02-15T05:41:35.744Z,13.30
2018-02-15T05:44:03.326Z,7.75
2018-02-15T05:46:30.875Z,12.50
2018-02-15T05:48:58.457Z,9.63
2018-02-15T05:51:26.013Z,9.77
2018-02-15T05:53:53.565Z,9.63
2018-02-15T05:56:21.110Z,10.30
2018-02-15T05:58:48.720Z,11.68
2018-02-15T06:01:17.058Z,12.70
2018-02-15T06:03:44.640Z,9.80
2018-02-15T06:06:12.209Z,15.02
2018-02-15T06:08:39.804Z,12.85
2018-02-15T06:11:07.395Z,9.57
2018-02-15T06:13:34.981Z,9.63
2018-02-15T06:16:02.566Z,10.80
2018-02-15T06:18:30.959Z,10.32
2018-02-15T06:20:58.570Z,11.15
2018-02-15T06:23:26.185Z,9.70
2018-02-15T06:25:53.785Z,7.85
2018-02-15T06:28:21.351Z,8.00
2018-02-15T06:30:48.958Z,7.07
2018-02-15T06:33:17.329Z,10.63
2018-02-15T06:35:45.681Z,9.18
2018-02-15T06:38:13.834Z,11.95
2018-02-15T06:40:41.437Z,11.10
2018-02-15T06:43:09.067Z,9.40
2018-02-15T06:45:36.643Z,11.75
2018-02-15T06:48:04.269Z,10.70
2018-02-15T06:50:31.878Z,12.88
2018-02-15T06:53:00.253Z,8.13
2018-02-15T06:55:27.851Z,9.52
2018-02-15T06:57:55.458Z,9.40
2018-02-15T07:00:23.076Z,10.40
2018-02-15T07:02:50.661Z,10.18
2018-02-15T07:05:18.269Z,10.60
2018-02-15T07:07:46.614Z,7.93
2018-02-15T07:10:14.209Z,13.55
2018-02-15T07:12:42.623Z,14.43
2018-02-15T07:15:10.230Z,10.05
2018-02-15T07:17:37.840Z,6.37
2018-02-15T07:20:05.454Z,6.93
2018-02-15T07:22:33.070Z,7.70
2018-02-15T07:25:00.660Z,8.20
2018-02-15T07:27:28.256Z,7.85
2018-02-15T07:29:56.610Z,8.95
2018-02-15T07:32:24.217Z,8.25
2018-02-15T07:34:51.822Z,6.85
2018-02-15T07:37:19.391Z,8.80
2018-02-15T07:39:47.770Z,8.77
2018-02-15T07:42:15.366Z,7.12
2018-02-15T07:44:43.573Z,6.72
2018-02-15T07:47:11.175Z,11.32
2018-02-15T07:49:38.782Z,10.68
2018-02-15T07:52:06.427Z,6.40
2018-02-15T07:54:34.059Z,14.07
2018-02-15T07:57:02.526Z,9.43
2018-02-15T07:59:30.127Z,10.68
2018-02-15T08:01:57.756Z,7.45
2018-02-15T08:04:25.345Z,11.30
2018-02-15T08:06:53.798Z,7.25
2018-02-15T08:09:21.358Z,9.35
2018-02-15T08:11:48.969Z,12.50
2018-02-15T08:14:16.574Z,8.13
2018-02-15T08:16:44.162Z,11.57
2018-02-15T08:19:12.537Z,13.18
2018-02-15T08:21:40.877Z,11.32
2018-02-15T08:24:08.510Z,14.57
2018-02-15T08:26:36.114Z,16.23
2018-02-15T08:29:03.730Z,12.73
2018-02-15T08:31:31.307Z,11.30
2018-02-15T08:33:58.914Z,12.75
2018-02-15T08:36:26.534Z,12.48
2018-02-15T08:38:54.226Z,15.07
2018-02-15T08:41:21.851Z,11.15
2018-02-15T08:43:49.454Z,12.68
2018-02-15T08:46:17.054Z,11.68
2018-02-15T08:48:44.671Z,16.98
2018-02-15T08:51:12.307Z,10.85
2018-02-15T08:53:39.921Z,12.43
2018-02-15T08:56:08.267Z,16.12
2018-02-15T08:58:35.891Z,12.07
2018-02-15T09:01:03.504Z,11.52
2018-02-15T09:03:31.092Z,10.75
2018-02-15T09:05:59.809Z,8.30
2018-02-15T09:08:27.419Z,10.52
2018-02-15T09:10:55.813Z,8.75
2018-02-15T09:13:24.166Z,10.77
2018-02-15T09:15:52.540Z,8.27
2018-02-15T09:18:20.153Z,12.88
2018-02-15T09:20:47.741Z,13.05
2018-02-15T09:23:15.366Z,9.65
2018-02-15T09:25:42.960Z,13.05
2018-02-15T09:28:10.614Z,12.40
2018-02-15T09:30:38.198Z,9.95
2018-02-15T09:33:05.799Z,8.50
2018-02-15T09:35:34.145Z,12.45
2018-02-15T09:38:01.772Z,11.48
2018-02-15T09:40:29.362Z,12.20
2018-02-15T09:42:57.308Z,11.18
2018-02-15T09:45:24.913Z,8.88
2018-02-15T09:47:52.506Z,12.57
2018-02-15T09:50:20.142Z,12.05
2018-02-15T09:52:48.521Z,9.48
2018-02-15T09:55:16.893Z,9.27
2018-02-15T09:57:44.485Z,12.18
2018-02-15T10:00:12.107Z,12.40
2018-02-15T10:02:39.733Z,12.85
2018-02-15T10:05:07.326Z,11.68
2018-02-15T10:07:34.907Z,13.98
2018-02-15T10:10:03.291Z,8.77
2018-02-15T10:12:31.631Z,11.18
2018-02-15T10:14:59.251Z,9.95
2018-02-15T10:17:26.876Z,13.45
2018-02-15T10:19:55.233Z,10.88
2018-02-15T10:22:22.857Z,14.25
2018-02-15T10:24:50.453Z,12.23
2018-02-15T10:27:18.069Z,13.73
2018-02-15T10:29:45.657Z,12.13
2018-02-15T10:32:13.276Z,11.12
2018-02-15T10:34:41.635Z,14.63
2018-02-15T10:37:09.265Z,11.12
2018-02-15T10:39:36.864Z,12.20
2018-02-15T10:42:04.513Z,11.52
2018-02-15T10:44:32.863Z,14.20
2018-02-15T10:47:00.466Z,11.70
2018-02-15T10:49:28.841Z,9.95
2018-02-15T10:51:57.200Z,9.25
2018-02-15T10:54:24.790Z,10.10
2018-02-15T10:56:53.139Z,9.52
2018-02-15T10:59:20.761Z,9.95
2018-02-15T11:01:48.378Z,9.70
2018-02-15T11:04:21.754Z,15.50
2018-02-15T11:06:49.335Z,8.95
2018-02-15T11:09:16.937Z,10.88
2018-02-15T11:11:44.517Z,12.82
2018-02-15T11:14:12.690Z,14.45
2018-02-15T11:16:40.321Z,15.57
2018-02-15T11:19:08.650Z,15.45
2018-02-15T11:21:36.235Z,15.90
2018-02-15T11:24:04.609Z,13.13
2018-02-15T11:26:32.228Z,17.77
2018-02-15T11:28:59.826Z,14.25
2018-02-15T11:31:27.435Z,13.07
2018-02-15T11:33:55.049Z,16.60
2018-02-15T11:36:22.667Z,18.90
2018-02-15T11:38:50.261Z,15.40
2018-02-15T11:41:17.903Z,17.87
2018-02-15T11:43:45.542Z,24.83
2018-02-15T11:46:13.148Z,23.87
2018-02-15T11:48:40.766Z,23.02
2018-02-15T11:51:08.364Z,22.58
2018-02-15T11:53:35.951Z,18.70
2018-02-15T11:56:04.326Z,20.05
2018-02-15T11:58:31.919Z,16.17
2018-02-15T12:00:59.526Z,22.48
2018-02-15T12:03:27.117Z,24.27
2018-02-15T12:05:55.470Z,26.37
2018-02-15T12:08:23.083Z,29.63
2018-02-15T12:10:50.696Z,26.00
2018-02-15T12:13:18.345Z,27.33
2018-02-15T12:15:45.903Z,30.08
2018-02-15T12:18:13.496Z,22.52
2018-02-15T12:20:41.089Z,26.42
2018-02-15T12:23:08.697Z,25.85
2018-02-15T12:25:36.293Z,24.12
2018-02-15T12:28:04.655Z,23.12
2018-02-15T12:30:32.238Z,24.67
2018-02-15T12:32:59.831Z,13.52
2018-02-15T12:35:27.439Z,24.00
2018-02-15T12:37:56.687Z,29.85
2018-02-15T12:40:24.301Z,36.63
2018-02-15T12:42:51.888Z,20.50
2018-02-15T12:45:19.508Z,19.45
2018-02-15T12:47:47.094Z,23.30
2018-02-15T12:50:15.554Z,28.02
2018-02-15T12:52:43.124Z,21.83
2018-02-15T12:55:11.510Z,30.58
2018-02-15T12:57:39.867Z,27.50
2018-02-15T13:00:07.480Z,25.37
2018-02-15T13:02:35.052Z,26.67
2018-02-15T13:05:02.639Z,27.35
2018-02-15T13:07:30.234Z,28.83
2018-02-15T13:09:58.577Z,24.55
2018-02-15T13:12:38.101Z,27.45
2018-02-15T13:15:17.528Z,23.35
2018-02-15T13:17:45.137Z,25.90
2018-02-15T13:20:18.730Z,26.80
2018-02-15T13:22:49.102Z,27.27
2018-02-15T13:25:16.694Z,23.65
2018-02-15T13:27:56.102Z,30.70
2018-02-15T13:30:23.722Z,24.20
2018-02-15T13:32:51.350Z,25.55
2018-02-15T13:35:18.952Z,22.55
2018-02-15T13:37:46.539Z,21.83
2018-02-15T13:40:14.914Z,26.58
2018-02-15T13:42:42.534Z,24.70
2018-02-15T13:45:10.132Z,28.40
2018-02-15T13:47:38.690Z,28.40
2018-02-15T13:50:06.285Z,26.85
2018-02-15T13:52:34.649Z,21.60
2018-02-15T13:55:03.045Z,30.90
2018-02-15T13:57:30.650Z,20.67
2018-02-15T13:59:58.229Z,28.15
2018-02-15T14:02:25.821Z,14.85
2018-02-15T14:04:54.165Z,24.23
2018-02-15T14:07:21.762Z,22.80
2018-02-15T14:09:49.381Z,18.60
2018-02-15T14:12:16.997Z,21.95
2018-02-15T14:14:44.578Z,19.83
2018-02-15T14:17:12.173Z,26.15
2018-02-15T14:19:39.818Z,20.88
2018-02-15T14:22:07.400Z,23.90
2018-02-15T14:24:36.519Z,23.50
2018-02-15T14:27:04.898Z,21.42
2018-02-15T14:29:33.302Z,23.38
2018-02-15T14:32:00.918Z,20.20
2018-02-15T14:34:28.537Z,22.83
2018-02-15T14:36:56.134Z,28.25
2018-02-15T14:39:23.742Z,23.55
2018-02-15T14:41:51.317Z,26.80
2018-02-15T14:44:18.942Z,23.00
2018-02-15T14:46:47.301Z,23.77
2018-02-15T14:49:14.906Z,24.10
2018-02-15T14:51:42.929Z,23.92
2018-02-15T14:54:12.045Z,22.55
2018-02-15T14:56:40.390Z,23.00
2018-02-15T14:59:07.958Z,22.23
2018-02-15T15:01:35.545Z,22.15
2018-02-15T15:04:03.924Z,20.95
2018-02-15T15:06:32.306Z,19.65
2018-02-15T15:09:00.688Z,23.95
2018-02-15T15:11:29.078Z,26.20
2018-02-15T15:13:56.680Z,22.10
2018-02-15T15:16:24.326Z,21.75
2018-02-15T15:18:51.922Z,18.30
2018-02-15T15:21:19.558Z,16.55
2018-02-15T15:23:47.161Z,23.67
2018-02-15T15:26:20.093Z,22.65
2018-02-15T15:28:47.697Z,22.85
2018-02-15T15:31:16.075Z,21.98
2018-02-15T15:33:43.677Z,23.27
2018-02-15T15:36:11.316Z,18.73
2018-02-15T15:38:39.761Z,20.35
2018-02-15T15:41:07.625Z,19.80
2018-02-15T15:43:35.406Z,24.27
2018-02-15T15:46:03.031Z,18.60
2018-02-15T15:48:30.622Z,18.20
2018-02-15T15:50:58.233Z,17.55
2018-02-15T15:53:25.871Z,21.75
2018-02-15T15:55:53.458Z,18.90
2018-02-15T15:58:21.549Z,19.62
2018-02-15T16:00:50.655Z,18.25
2018-02-15T16:03:18.482Z,17.98
2018-02-15T16:05:48.636Z,18.62
2018-02-15T16:08:16.236Z,17.92
2018-02-15T16:10:43.894Z,17.87
2018-02-15T16:13:11.550Z,16.70
2018-02-15T16:15:39.133Z,18.50
2018-02-15T16:18:07.530Z,18.25
2018-02-15T16:20:35.158Z,21.80
2018-02-15T16:23:02.773Z,21.83
2018-02-15T16:25:30.373Z,19.62
2018-02-15T16:27:58.118Z,17.52
2018-02-15T16:30:25.734Z,16.80
2018-02-15T16:32:53.330Z,17.48
2018-02-15T16:35:20.949Z,16.00
2018-02-15T16:37:49.365Z,13.73
2018-02-15T16:40:16.974Z,16.67
2018-02-15T16:42:45.385Z,13.52
2018-02-15T16:45:12.995Z,14.75
2018-02-15T16:47:40.586Z,13.93
2018-02-15T16:50:08.933Z,17.02
2018-02-15T16:52:36.542Z,17.40
2018-02-15T16:55:04.905Z,15.18
2018-02-15T16:57:33.316Z,16.77
2018-02-15T17:00:00.942Z,16.42
2018-02-15T17:02:29.328Z,16.85
2018-02-15T17:04:57.678Z,15.05
2018-02-15T17:07:25.298Z,17.52
2018-02-15T17:09:52.925Z,15.35
2018-02-15T17:12:20.518Z,15.63
2018-02-15T17:14:48.134Z,16.33
2018-02-15T17:17:16.536Z,17.58
2018-02-15T17:19:44.922Z,16.25
2018-02-15T17:22:13.282Z,18.05
2018-02-15T17:24:40.914Z,18.23
2018-02-15T17:27:08.504Z,20.15
2018-02-15T17:29:36.098Z,15.40
2018-02-15T17:32:03.783Z,16.98
2018-02-15T17:34:31.423Z,13.20
2018-02-15T17:36:59.008Z,13.95
2018-02-15T17:39:26.616Z,15.43
2018-02-15T17:41:54.972Z,18.45
2018-02-15T17:44:22.599Z,19.52
2018-02-15T17:46:50.217Z,16.35
2018-02-15T17:49:18.605Z,15.13
2018-02-15T17:51:47.012Z,15.82
2018-02-15T17:54:14.613Z,15.27
2018-02-15T17:56:42.258Z,14.70
2018-02-15T17:59:09.853Z,15.85
2018-02-15T18:01:38.239Z,12.50
2018-02-15T18:04:06.605Z,12.45
2018-02-15T18:06:34.197Z,13.38
2018-02-15T18:09:01.838Z,15.80
2018-02-15T18:11:30.280Z,13.50
2018-02-15T18:13:57.861Z,13.27
2018-02-15T18:16:25.493Z,10.93
2018-02-15T18:18:53.125Z,13.43
2018-02-15T18:21:20.738Z,13.70
2018-02-15T18:23:48.328Z,12.40
2018-02-15T18:26:16.762Z,14.40
2018-02-15T18:28:44.387Z,12.77
2018-02-15T18:31:12.727Z,12.73
2018-02-15T18:33:40.331Z,16.92
2018-02-15T18:36:07.927Z,14.63
2018-02-15T18:38:35.523Z,14.27
2018-02-15T18:41:03.215Z,16.67
2018-02-15T18:43:30.779Z,14.77
2018-02-15T18:45:58.388Z,15.45
2018-02-15T18:48:25.989Z,14.02
2018-02-15T18:50:54.350Z,15.57
2018-02-15T18:53:22.278Z,11.95
2018-02-15T18:55:49.889Z,12.05
2018-02-15T18:58:18.268Z,13.57
2018-02-15T19:00:46.640Z,12.93
2018-02-15T19:03:14.995Z,14.32
2018-02-15T19:05:42.597Z,13.57
2018-02-15T19:08:10.207Z,15.38
2018-02-15T19:10:37.849Z,13.70
2018-02-15T19:13:05.429Z,11.90
2018-02-15T19:15:33.058Z,17.12
2018-02-15T19:18:00.688Z,18.27
2018-02-15T19:20:29.071Z,14.45
2018-02-15T19:22:57.456Z,14.60
2018-02-15T19:25:25.071Z,13.15
2018-02-15T19:27:52.708Z,11.77
2018-02-15T19:30:20.286Z,13.52
2018-02-15T19:32:47.895Z,15.20
2018-02-15T19:35:16.277Z,18.62
2018-02-15T19:37:45.953Z,16.48
2018-02-15T19:40:14.387Z,15.63
2018-02-15T19:42:42.017Z,15.93
2018-02-15T19:45:10.425Z,12.65
2018-02-15T19:47:41.196Z,14.20
2018-02-15T19:50:08.808Z,18.08
2018-02-15T19:52:37.201Z,17.42
2018-02-15T19:55:04.966Z,15.85
2018-02-15T19:57:32.590Z,14.60
2018-02-15T20:00:00.193Z,15.68
2018-02-15T20:02:27.797Z,18.62
2018-02-15T20:04:55.587Z,16.70
2018-02-15T20:07:23.946Z,17.23
2018-02-15T20:09:51.586Z,18.85
2018-02-15T20:12:19.202Z,16.60
2018-02-15T20:14:48.240Z,15.90
2018-02-15T20:17:15.849Z,16.33
2018-02-15T20:19:49.856Z,30.02
2018-02-15T20:22:18.282Z,20.00
2018-02-15T20:24:45.921Z,28.05
2018-02-15T20:27:19.165Z,22.55
2018-02-15T20:29:46.826Z,16.77
2018-02-15T20:32:14.469Z,18.40
2018-02-15T20:34:42.100Z,16.40
2018-02-15T20:37:09.713Z,17.02
2018-02-15T20:39:42.965Z,16.10
2018-02-15T20:42:10.576Z,16.98
2018-02-15T20:44:38.209Z,17.05
2018-02-15T20:47:05.837Z,15.32
2018-02-15T20:49:39.948Z,16.45
2018-02-15T20:52:14.048Z,16.20
2018-02-15T20:54:59.158Z,20.50
2018-02-15T20:57:26.763Z,23.62
2018-02-15T20:59:54.390Z,20.77
2018-02-15T21:02:22.001Z,13.75
2018-02-15T21:04:49.647Z,18.42
2018-02-15T21:07:17.245Z,14.43
2018-02-15T21:09:44.909Z,19.10
2018-02-15T21:12:12.601Z,22.42
2018-02-15T21:14:40.201Z,15.23
2018-02-15T21:17:07.805Z,20.35
2018-02-15T21:19:35.381Z,23.52
2018-02-15T21:22:03.053Z,21.55
2018-02-15T21:24:31.437Z,23.60
2018-02-15T21:26:59.058Z,25.15
2018-02-15T21:29:26.670Z,24.60
2018-02-15T21:31:54.293Z,20.88
2018-02-15T21:34:21.893Z,21.17
2018-02-15T21:36:49.531Z,23.33
2018-02-15T21:39:17.142Z,21.27
2018-02-15T21:41:45.545Z,25.58
2018-02-15T21:44:13.171Z,26.30
2018-02-15T21:46:41.757Z,24.15
2018-02-15T21:49:09.403Z,25.98
2018-02-15T21:51:37.036Z,33.60
2018-02-15T21:54:04.688Z,37.63
2018-02-15T21:56:32.288Z,30.88
2018-02-15T21:58:59.889Z,28.12
2018-02-15T22:01:28.239Z,25.40
2018-02-15T22:03:55.865Z,24.92
2018-02-15T22:06:23.460Z,25.90
2018-02-15T22:08:51.828Z,30.23
2018-02-15T22:11:19.407Z,35.10
2018-02-15T22:13:47.815Z,31.25
2018-02-15T22:16:15.441Z,30.55
2018-02-15T22:18:43.034Z,29.90
2018-02-15T22:21:10.637Z,27.95
2018-02-15T22:23:38.216Z,33.28
2018-02-15T22:26:05.791Z,29.63
2018-02-15T22:28:33.375Z,29.85
2018-02-15T22:31:01.717Z,25.70
2018-02-15T22:33:29.284Z,25.77
2018-02-15T22:35:56.849Z,29.05
2018-02-15T22:38:24.401Z,28.55
2018-02-15T22:40:51.956Z,28.48
2018-02-15T22:43:19.508Z,26.12
2018-02-15T22:45:47.052Z,23.48
2018-02-15T22:48:14.660Z,26.30
2018-02-15T22:50:42.232Z,25.02
2018-02-15T22:53:10.561Z,29.02
2018-02-15T22:55:38.127Z,26.75
2018-02-15T22:58:05.716Z,25.80
2018-02-15T23:00:34.048Z,27.85
2018-02-15T23:03:01.617Z,29.52
2018-02-15T23:05:29.308Z,26.05
2018-02-15T23:07:56.875Z,30.55
2018-02-15T23:10:25.208Z,32.97
2018-02-15T23:12:52.748Z,32.83
2018-02-15T23:15:20.314Z,32.22
2018-02-15T23:17:47.883Z,30.23
2018-02-15T23:20:18.527Z,29.20
2018-02-15T23:22:46.325Z,30.98
2018-02-15T23:25:13.901Z,26.37
2018-02-15T23:27:42.479Z,25.05
2018-02-15T23:30:12.670Z,24.60
2018-02-15T23:32:40.707Z,24.20
2018-02-15T23:35:09.081Z,19.85
2018-02-15T23:37:39.022Z,22.87
2018-02-15T23:40:07.594Z,17.77
2018-02-15T23:42:35.923Z,21.80
2018-02-15T23:45:04.450Z,20.48
2018-02-15T23:47:32.566Z,26.48
2018-02-15T23:50:00.868Z,24.70
2018-02-15T23:52:29.785Z,22.33
2018-02-15T23:54:58.171Z,26.23
2018-02-15T23:57:26.675Z,22.27
2018-02-15T23:59:55.532Z,21.48
